createdAt,value
2023-04-26T00:02:00.606Z,10.19
2023-04-26T00:04:29.210Z,10.76
2023-04-26T00:06:57.336Z,10.50
2023-04-26T00:09:24.813Z,10.50
2023-04-26T00:11:52.427Z,10.26
2023-04-26T00:14:19.785Z,10.38
2023-04-26T00:16:47.452Z,10.13
2023-04-26T00:19:16.020Z,9.75
2023-04-26T00:21:43.385Z,9.85
2023-04-26T00:24:10.768Z,10.20
2023-04-26T00:26:38.385Z,10.61
2023-04-26T00:29:06.017Z,10.21
2023-04-26T00:31:33.548Z,10.75
2023-04-26T00:34:01.269Z,10.39
2023-04-26T00:36:28.621Z,10.71
2023-04-26T00:38:55.982Z,10.42
2023-04-26T00:41:24.264Z,10.30
2023-04-26T00:43:51.626Z,9.93
2023-04-26T00:46:19.126Z,10.00
2023-04-26T00:48:47.101Z,9.90
2023-04-26T00:51:14.460Z,9.59
2023-04-26T00:53:41.905Z,9.80
2023-04-26T00:56:09.640Z,9.24
2023-04-26T00:58:37.506Z,9.09
2023-04-26T01:01:04.899Z,9.24
2023-04-26T01:03:32.818Z,9.69
2023-04-26T01:06:01.297Z,9.51
2023-04-26T01:08:28.660Z,9.95
2023-04-26T01:10:58.686Z,9.77
2023-04-26T01:13:26.788Z,9.72
2023-04-26T01:15:54.182Z,9.78
2023-04-26T01:18:21.800Z,9.38
2023-04-26T01:20:52.959Z,9.43
2023-04-26T01:23:20.336Z,9.58
2023-04-26T01:25:48.247Z,8.91
2023-04-26T01:28:15.627Z,9.02
2023-04-26T01:30:43.310Z,9.22
2023-04-26T01:33:11.468Z,9.42
2023-04-26T01:35:38.827Z,9.43
2023-04-26T01:38:06.243Z,9.48
2023-04-26T01:40:33.847Z,9.68
2023-04-26T01:43:03.169Z,9.92
2023-04-26T01:45:31.054Z,10.22
2023-04-26T01:48:13.424Z,10.05
2023-04-26T01:50:41.003Z,9.10
2023-04-26T01:53:08.356Z,8.81
2023-04-26T01:55:36.099Z,9.30
2023-04-26T01:58:03.691Z,9.19
2023-04-26T02:00:31.057Z,9.06
2023-04-26T02:02:58.743Z,9.10
2023-04-26T02:05:26.293Z,9.22
2023-04-26T02:07:53.720Z,9.57
2023-04-26T02:10:21.442Z,9.28
2023-04-26T02:12:48.820Z,9.68
2023-04-26T02:15:16.274Z,9.03
2023-04-26T02:17:43.994Z,9.18
2023-04-26T02:20:11.796Z,9.38
2023-04-26T02:22:39.164Z,9.77
2023-04-26T02:25:07.400Z,9.46
2023-04-26T02:27:35.017Z,9.31
2023-04-26T02:30:02.399Z,9.47
2023-04-26T02:32:30.057Z,8.95
2023-04-26T02:34:57.922Z,9.46
2023-04-26T02:37:26.764Z,8.96
2023-04-26T02:39:54.177Z,9.25
2023-04-26T02:42:22.004Z,9.05
2023-04-26T02:44:49.380Z,9.16
2023-04-26T02:47:16.930Z,9.29
2023-04-26T02:49:44.736Z,8.74
2023-04-26T02:52:12.060Z,9.35
2023-04-26T02:54:39.600Z,8.80
2023-04-26T02:57:08.269Z,8.93
2023-04-26T02:59:35.659Z,8.33
2023-04-26T03:02:03.031Z,8.37
2023-04-26T03:04:33.944Z,8.38
2023-04-26T03:07:01.935Z,8.64
2023-04-26T03:09:29.329Z,8.31
2023-04-26T03:11:57.078Z,8.64
2023-04-26T03:14:24.516Z,8.65
2023-04-26T03:16:52.130Z,8.12
2023-04-26T03:19:20.006Z,8.62
2023-04-26T03:21:47.579Z,8.96
2023-04-26T03:24:14.979Z,8.56
2023-04-26T03:26:42.628Z,8.65
2023-04-26T03:29:10.180Z,8.51
2023-04-26T03:31:37.725Z,8.68
2023-04-26T03:34:05.508Z,8.95
2023-04-26T03:36:32.894Z,9.12
2023-04-26T03:39:00.260Z,9.03
2023-04-26T03:41:27.890Z,8.83
2023-04-26T03:43:55.764Z,8.94
2023-04-26T03:46:24.184Z,8.92
2023-04-26T03:48:52.243Z,8.39
2023-04-26T03:51:19.917Z,8.71
2023-04-26T03:53:48.744Z,8.93
2023-04-26T03:56:17.041Z,9.25
2023-04-26T03:58:44.494Z,9.31
2023-04-26T04:01:11.913Z,9.56
2023-04-26T04:03:41.289Z,8.78
2023-04-26T04:06:09.564Z,9.20
2023-04-26T04:08:36.950Z,8.35
2023-04-26T04:11:04.636Z,9.01
2023-04-26T04:13:32.695Z,9.18
2023-04-26T04:16:00.167Z,9.39
2023-04-26T04:18:27.833Z,9.40
2023-04-26T04:20:55.222Z,9.00
2023-04-26T04:23:22.845Z,8.73
2023-04-26T04:25:51.616Z,9.02
2023-04-26T04:28:20.434Z,9.02
2023-04-26T04:30:48.129Z,8.69
2023-04-26T04:33:17.666Z,8.74
2023-04-26T04:35:45.427Z,8.90
2023-04-26T04:38:13.216Z,8.42
2023-04-26T04:40:41.287Z,8.80
2023-04-26T04:43:09.041Z,9.12
2023-04-26T04:45:37.345Z,9.17
2023-04-26T04:48:05.538Z,8.43
2023-04-26T04:50:33.063Z,8.74
2023-04-26T04:53:00.590Z,8.90
2023-04-26T04:55:28.689Z,8.36
2023-04-26T04:57:56.437Z,8.84
2023-04-26T05:00:24.106Z,9.00
2023-04-26T05:02:52.307Z,8.94
2023-04-26T05:05:20.521Z,9.22
2023-04-26T05:07:48.002Z,8.90
2023-04-26T05:10:16.276Z,8.67
2023-04-26T05:12:43.679Z,8.89
2023-04-26T05:15:11.164Z,9.06
2023-04-26T05:17:38.872Z,9.41
2023-04-26T05:20:08.045Z,9.58
2023-04-26T05:22:36.908Z,10.17
2023-04-26T05:25:05.535Z,10.21
2023-04-26T05:27:33.121Z,10.33
2023-04-26T05:30:05.906Z,9.90
2023-04-26T05:32:33.815Z,9.74
2023-04-26T05:35:01.824Z,10.45
2023-04-26T05:37:30.724Z,10.25
2023-04-26T05:39:58.555Z,10.74
2023-04-26T05:42:27.468Z,10.32
2023-04-26T05:44:59.031Z,10.10
2023-04-26T05:47:27.821Z,10.30
2023-04-26T05:49:55.146Z,10.53
2023-04-26T05:52:22.492Z,9.87
2023-04-26T05:54:50.459Z,9.91
2023-04-26T05:57:19.039Z,10.39
2023-04-26T05:59:46.747Z,10.07
2023-04-26T06:02:14.588Z,9.94
2023-04-26T06:04:42.446Z,10.60
2023-04-26T06:07:10.470Z,10.10
2023-04-26T06:09:37.857Z,10.31
2023-04-26T06:12:05.874Z,10.58
2023-04-26T06:14:33.927Z,10.75
2023-04-26T06:17:01.698Z,11.04
2023-04-26T06:19:29.569Z,10.73
2023-04-26T06:21:57.316Z,11.01
2023-04-26T06:24:26.075Z,11.10
2023-04-26T06:26:53.934Z,11.52
2023-04-26T06:29:21.571Z,11.52
2023-04-26T06:31:49.030Z,12.72
2023-04-26T06:34:18.267Z,12.02
2023-04-26T06:36:46.241Z,12.77
2023-04-26T06:39:13.829Z,13.83
2023-04-26T06:41:43.452Z,13.42
2023-04-26T06:44:11.415Z,13.41
2023-04-26T06:46:42.402Z,15.33
2023-04-26T06:49:10.528Z,14.59
2023-04-26T06:51:37.908Z,14.05
2023-04-26T06:54:05.545Z,16.18
2023-04-26T06:56:33.057Z,17.56
2023-04-26T06:59:04.431Z,17.59
2023-04-26T07:01:35.488Z,16.41
2023-04-26T07:04:03.835Z,16.57
2023-04-26T07:06:31.619Z,16.63
2023-04-26T07:09:00.724Z,15.46
2023-04-26T07:11:28.987Z,17.24
2023-04-26T07:13:57.101Z,19.04
2023-04-26T07:16:24.662Z,17.34
2023-04-26T07:18:52.954Z,17.51
2023-04-26T07:21:20.594Z,17.70
2023-04-26T07:23:47.955Z,17.28
2023-04-26T07:26:15.365Z,17.10
2023-04-26T07:28:43.094Z,17.39
2023-04-26T07:31:11.066Z,15.98
2023-04-26T07:33:38.894Z,17.40
2023-04-26T07:36:06.756Z,18.41
2023-04-26T07:38:34.087Z,17.37
2023-04-26T07:41:01.475Z,16.63
2023-04-26T07:43:30.234Z,16.03
2023-04-26T07:46:03.480Z,18.22
2023-04-26T07:48:31.197Z,16.85
2023-04-26T07:51:06.680Z,16.84
2023-04-26T07:53:34.351Z,16.67
2023-04-26T07:56:01.851Z,17.11
2023-04-26T07:58:29.222Z,16.79
2023-04-26T08:00:56.908Z,17.59
2023-04-26T08:03:24.779Z,17.72
2023-04-26T08:05:53.996Z,16.62
2023-04-26T08:08:22.394Z,17.21
2023-04-26T08:10:50.018Z,17.16
2023-04-26T08:13:17.396Z,18.55
2023-04-26T08:15:44.758Z,18.24
2023-04-26T08:18:12.458Z,19.44
2023-04-26T08:20:39.852Z,19.23
2023-04-26T08:23:07.218Z,18.16
2023-04-26T08:25:34.989Z,18.58
2023-04-26T08:28:02.622Z,19.65
2023-04-26T08:30:30.170Z,18.77
2023-04-26T08:32:57.857Z,18.34
2023-04-26T08:35:25.553Z,15.50
2023-04-26T08:37:53.478Z,17.44
2023-04-26T08:40:24.783Z,18.38
2023-04-26T08:42:53.531Z,17.15
2023-04-26T08:45:21.454Z,17.61
2023-04-26T08:47:53.650Z,18.15
2023-04-26T08:50:22.413Z,18.99
2023-04-26T08:52:51.368Z,17.48
2023-04-26T08:55:20.283Z,16.06
2023-04-26T08:57:48.774Z,15.14
2023-04-26T09:00:16.901Z,17.19
2023-04-26T09:02:52.039Z,16.37
2023-04-26T09:05:27.184Z,16.81
2023-04-26T09:07:58.062Z,18.55
2023-04-26T09:10:26.379Z,18.08
2023-04-26T09:12:53.920Z,17.04
2023-04-26T09:15:22.767Z,17.55
2023-04-26T09:17:51.764Z,17.89
2023-04-26T09:20:22.838Z,18.30
2023-04-26T09:23:03.597Z,19.10
2023-04-26T09:25:33.723Z,18.64
2023-04-26T09:28:01.925Z,18.48
2023-04-26T09:30:29.381Z,18.65
2023-04-26T09:33:06.980Z,16.98
2023-04-26T09:35:41.833Z,16.54
2023-04-26T09:38:16.607Z,17.64
2023-04-26T09:40:50.990Z,17.46
2023-04-26T09:43:19.779Z,18.86
2023-04-26T09:45:49.474Z,18.86
2023-04-26T09:48:17.866Z,19.63
2023-04-26T09:50:48.171Z,18.73
2023-04-26T09:53:37.226Z,18.67
2023-04-26T09:56:10.723Z,18.15
2023-04-26T09:58:39.641Z,18.26
2023-04-26T10:01:10.623Z,18.18
2023-04-26T10:03:38.779Z,16.62
2023-04-26T10:06:06.686Z,15.02
2023-04-26T10:08:34.269Z,14.87
2023-04-26T10:11:04.213Z,14.57
2023-04-26T10:13:34.914Z,16.69
2023-04-26T10:16:02.895Z,15.93
2023-04-26T10:18:31.475Z,15.30
2023-04-26T10:21:07.702Z,14.30
2023-04-26T10:23:35.189Z,15.29
2023-04-26T10:26:03.346Z,16.92
2023-04-26T10:28:46.198Z,16.90
2023-04-26T10:31:13.794Z,17.91
2023-04-26T10:33:41.297Z,16.04
2023-04-26T10:36:12.689Z,16.09
2023-04-26T10:38:59.640Z,14.88
2023-04-26T10:41:37.071Z,14.68
2023-04-26T10:44:42.711Z,14.72
2023-04-26T10:47:33.473Z,14.76
2023-04-26T10:50:09.194Z,14.77
2023-04-26T10:52:38.020Z,14.92
2023-04-26T10:55:06.781Z,14.37
2023-04-26T10:57:50.606Z,14.00
2023-04-26T11:00:32.092Z,14.71
2023-04-26T11:03:03.503Z,14.03
2023-04-26T11:05:35.858Z,14.18
2023-04-26T11:08:16.256Z,13.74
2023-04-26T11:10:49.691Z,13.29
2023-04-26T11:13:17.226Z,13.13
2023-04-26T11:15:45.048Z,13.45
2023-04-26T11:18:12.437Z,13.28
2023-04-26T11:20:39.776Z,13.86
2023-04-26T11:23:08.138Z,14.29
2023-04-26T11:25:35.577Z,14.25
2023-04-26T11:28:03.332Z,14.30
2023-04-26T11:30:31.834Z,13.98
2023-04-26T11:33:00.218Z,13.45
2023-04-26T11:35:29.544Z,13.19
2023-04-26T11:38:00.839Z,13.75
2023-04-26T11:40:29.712Z,13.86
2023-04-26T11:43:05.961Z,13.69
2023-04-26T11:45:34.064Z,14.24
2023-04-26T11:48:02.708Z,14.33
2023-04-26T11:50:33.645Z,13.85
2023-04-26T11:53:02.092Z,13.63
2023-04-26T11:55:32.067Z,13.59
2023-04-26T11:57:59.984Z,13.57
2023-04-26T12:00:27.616Z,13.93
2023-04-26T12:02:57.356Z,14.30
2023-04-26T12:05:26.210Z,13.48
2023-04-26T12:07:55.635Z,13.27
2023-04-26T12:10:28.125Z,13.82
2023-04-26T12:12:58.557Z,13.87
2023-04-26T12:15:31.284Z,13.35
2023-04-26T12:17:58.594Z,13.47
2023-04-26T12:20:33.602Z,13.71
2023-04-26T12:23:11.922Z,14.12
2023-04-26T12:25:39.985Z,14.04
2023-04-26T12:28:12.649Z,14.30
2023-04-26T12:30:40.852Z,14.56
2023-04-26T12:33:16.933Z,13.97
2023-04-26T12:35:46.299Z,14.37
2023-04-26T12:38:14.215Z,13.56
2023-04-26T12:40:51.248Z,13.68
2023-04-26T12:43:19.899Z,14.31
2023-04-26T12:45:47.306Z,13.67
2023-04-26T12:48:15.637Z,13.45
2023-04-26T12:50:44.238Z,13.19
2023-04-26T12:53:11.836Z,14.07
2023-04-26T12:55:39.726Z,14.19
2023-04-26T12:58:07.360Z,13.73
2023-04-26T13:00:34.754Z,13.97
2023-04-26T13:03:02.545Z,13.13
2023-04-26T13:05:30.623Z,12.93
2023-04-26T13:07:58.010Z,13.87
2023-04-26T13:10:25.462Z,13.80
2023-04-26T13:12:53.943Z,14.11
2023-04-26T13:15:21.646Z,13.74
2023-04-26T13:17:49.139Z,13.37
2023-04-26T13:20:16.804Z,13.35
2023-04-26T13:22:44.167Z,13.14
2023-04-26T13:25:13.180Z,13.47
2023-04-26T13:27:41.136Z,13.90
2023-04-26T13:30:09.114Z,14.26
2023-04-26T13:32:36.860Z,13.99
2023-04-26T13:35:04.766Z,13.50
2023-04-26T13:37:32.858Z,13.23
2023-04-26T13:40:00.354Z,13.46
2023-04-26T13:42:28.195Z,13.27
2023-04-26T13:44:55.553Z,13.41
2023-04-26T13:47:23.028Z,13.70
2023-04-26T13:49:51.146Z,13.92
2023-04-26T13:52:18.584Z,13.30
2023-04-26T13:54:45.951Z,13.11
2023-04-26T13:57:13.543Z,13.26
2023-04-26T13:59:40.980Z,13.22
2023-04-26T14:02:08.471Z,13.11
2023-04-26T14:04:36.613Z,13.14
2023-04-26T14:07:04.269Z,13.19
2023-04-26T14:09:31.861Z,13.17
2023-04-26T14:12:08.039Z,13.04
2023-04-26T14:14:37.009Z,12.94
2023-04-26T14:17:04.628Z,12.70
2023-04-26T14:19:32.024Z,12.67
2023-04-26T14:21:59.518Z,12.66
2023-04-26T14:24:27.295Z,12.29
2023-04-26T14:26:54.705Z,12.91
2023-04-26T14:29:22.061Z,13.01
2023-04-26T14:31:50.418Z,12.86
2023-04-26T14:34:17.830Z,12.81
2023-04-26T14:36:45.182Z,12.91
2023-04-26T14:39:12.768Z,13.03
2023-04-26T14:41:40.829Z,12.63
2023-04-26T14:44:08.202Z,12.29
2023-04-26T14:46:35.988Z,12.42
2023-04-26T14:49:03.416Z,12.64
2023-04-26T14:51:31.992Z,12.42
2023-04-26T14:53:59.582Z,11.95
2023-04-26T14:56:26.925Z,12.53
2023-04-26T14:58:54.283Z,12.60
2023-04-26T15:01:21.910Z,12.72
2023-04-26T15:03:49.435Z,12.84
2023-04-26T15:06:16.912Z,13.46
2023-04-26T15:08:44.635Z,13.43
2023-04-26T15:11:11.954Z,13.38
2023-04-26T15:13:39.280Z,13.65
2023-04-26T15:16:08.029Z,13.64
2023-04-26T15:18:35.665Z,13.23
2023-04-26T15:21:03.026Z,13.34
2023-04-26T15:23:30.638Z,12.77
2023-04-26T15:26:02.221Z,13.19
2023-04-26T15:28:29.626Z,12.78
2023-04-26T15:31:04.158Z,12.66
2023-04-26T15:33:31.730Z,12.78
2023-04-26T15:35:59.353Z,12.99
2023-04-26T15:38:26.699Z,12.75
2023-04-26T15:40:54.076Z,12.19
2023-04-26T15:43:22.092Z,12.56
2023-04-26T15:45:49.649Z,12.43
2023-04-26T15:48:17.511Z,12.39
2023-04-26T15:50:46.183Z,12.39
2023-04-26T15:53:13.605Z,12.03
2023-04-26T15:55:41.566Z,11.71
2023-04-26T15:58:09.223Z,11.86
2023-04-26T16:00:36.702Z,12.03
2023-04-26T16:03:04.540Z,11.84
2023-04-26T16:05:32.065Z,12.10
2023-04-26T16:08:03.801Z,12.49
2023-04-26T16:10:31.433Z,12.77
2023-04-26T16:12:58.915Z,12.89
2023-04-26T16:15:26.426Z,12.38
2023-04-26T16:17:54.041Z,12.38
2023-04-26T16:20:21.564Z,12.19
2023-04-26T16:22:49.892Z,12.44
2023-04-26T16:25:17.602Z,12.31
2023-04-26T16:27:44.948Z,12.34
2023-04-26T16:30:12.516Z,11.60
2023-04-26T16:32:40.229Z,11.90
2023-04-26T16:35:08.870Z,12.28
2023-04-26T16:37:39.256Z,11.78
2023-04-26T16:40:07.890Z,12.06
2023-04-26T16:42:35.219Z,11.89
2023-04-26T16:45:02.782Z,12.24
2023-04-26T16:47:30.978Z,12.45
2023-04-26T16:49:58.600Z,12.34
2023-04-26T16:52:25.985Z,12.85
2023-04-26T16:54:53.571Z,12.23
2023-04-26T16:57:21.056Z,11.98
2023-04-26T16:59:48.397Z,12.48
2023-04-26T17:02:16.458Z,12.15
2023-04-26T17:04:44.094Z,12.14
2023-04-26T17:07:12.737Z,12.11
2023-04-26T17:09:40.405Z,12.17
2023-04-26T17:12:07.985Z,12.58
2023-04-26T17:14:35.309Z,12.46
2023-04-26T17:17:02.947Z,12.07
2023-04-26T17:19:30.323Z,11.92
2023-04-26T17:21:57.696Z,11.80
2023-04-26T17:24:25.440Z,12.21
2023-04-26T17:26:52.842Z,12.13
2023-04-26T17:29:20.727Z,11.91
2023-04-26T17:31:48.385Z,11.99
2023-04-26T17:34:16.010Z,12.08
2023-04-26T17:36:45.548Z,11.80
2023-04-26T17:39:13.182Z,11.67
2023-04-26T17:41:40.673Z,12.22
2023-04-26T17:44:07.998Z,12.09
2023-04-26T17:46:35.758Z,12.22
2023-04-26T17:49:03.279Z,11.77
2023-04-26T17:51:30.743Z,11.91
2023-04-26T17:53:58.374Z,11.83
2023-04-26T17:56:25.734Z,12.34
2023-04-26T17:58:53.086Z,11.87
2023-04-26T18:01:21.246Z,12.13
2023-04-26T18:03:49.267Z,11.84
2023-04-26T18:06:19.348Z,12.15
2023-04-26T18:08:47.122Z,11.95
2023-04-26T18:11:14.838Z,11.65
2023-04-26T18:13:42.189Z,11.88
2023-04-26T18:16:09.584Z,11.73
2023-04-26T18:18:37.194Z,11.52
2023-04-26T18:21:04.604Z,11.38
2023-04-26T18:23:31.962Z,11.44
2023-04-26T18:25:59.587Z,11.45
2023-04-26T18:28:26.966Z,11.79
2023-04-26T18:30:58.020Z,11.36
2023-04-26T18:33:26.299Z,10.88
2023-04-26T18:35:53.700Z,11.07
2023-04-26T18:38:21.078Z,11.76
2023-04-26T18:40:49.770Z,11.43
2023-04-26T18:43:17.266Z,11.63
2023-04-26T18:45:44.749Z,11.36
2023-04-26T18:48:12.453Z,10.93
2023-04-26T18:50:39.833Z,11.28
2023-04-26T18:53:07.167Z,11.67
2023-04-26T18:55:34.787Z,11.50
2023-04-26T18:58:02.215Z,11.89
2023-04-26T19:00:29.564Z,11.93
2023-04-26T19:02:57.377Z,11.73
2023-04-26T19:05:25.059Z,12.10
2023-04-26T19:07:53.346Z,12.09
2023-04-26T19:10:21.380Z,12.09
2023-04-26T19:12:48.918Z,12.19
2023-04-26T19:15:16.679Z,12.20
2023-04-26T19:17:44.403Z,11.81
2023-04-26T19:20:13.984Z,11.90
2023-04-26T19:22:47.490Z,11.95
2023-04-26T19:25:15.108Z,11.51
2023-04-26T19:27:42.454Z,11.41
2023-04-26T19:30:10.092Z,11.80
2023-04-26T19:32:37.770Z,11.45
2023-04-26T19:35:06.158Z,11.31
2023-04-26T19:37:33.582Z,11.57
2023-04-26T19:40:01.217Z,10.78
2023-04-26T19:42:28.598Z,10.43
2023-04-26T19:44:56.210Z,9.82
2023-04-26T19:47:23.863Z,10.56
2023-04-26T19:49:53.026Z,10.92
2023-04-26T19:52:20.432Z,11.23
2023-04-26T19:54:48.013Z,11.12
2023-04-26T19:57:15.354Z,11.16
2023-04-26T19:59:42.705Z,10.99
2023-04-26T20:02:10.299Z,11.08
2023-04-26T20:04:37.936Z,11.42
2023-04-26T20:07:05.524Z,11.30
2023-04-26T20:09:32.900Z,11.21
2023-04-26T20:12:00.714Z,10.94
2023-04-26T20:14:30.182Z,11.27
2023-04-26T20:17:02.215Z,11.23
2023-04-26T20:19:30.627Z,11.08
2023-04-26T20:21:58.002Z,10.84
2023-04-26T20:24:27.802Z,10.81
2023-04-26T20:26:56.478Z,10.75
2023-04-26T20:29:24.120Z,11.09
2023-04-26T20:31:51.865Z,10.77
2023-04-26T20:34:19.532Z,10.75
2023-04-26T20:36:47.411Z,10.64
2023-04-26T20:39:14.805Z,10.30
2023-04-26T20:41:42.650Z,10.33
2023-04-26T20:44:10.291Z,10.15
2023-04-26T20:46:37.671Z,9.72
2023-04-26T20:49:06.713Z,9.67
2023-04-26T20:51:34.308Z,10.00
2023-04-26T20:54:01.707Z,9.52
2023-04-26T20:56:29.347Z,9.66
2023-04-26T20:58:57.659Z,9.19
2023-04-26T21:01:25.023Z,9.27
2023-04-26T21:03:52.888Z,9.17
2023-04-26T21:06:20.340Z,8.95
2023-04-26T21:08:47.786Z,8.70
2023-04-26T21:11:15.447Z,8.70
2023-04-26T21:13:42.847Z,8.66
2023-04-26T21:16:10.199Z,8.85
2023-04-26T21:18:37.881Z,9.46
2023-04-26T21:21:05.309Z,9.14
2023-04-26T21:23:33.197Z,9.16
2023-04-26T21:26:00.902Z,9.51
2023-04-26T21:28:28.278Z,9.80
2023-04-26T21:31:04.601Z,9.46
2023-04-26T21:33:32.243Z,9.78
2023-04-26T21:36:00.458Z,9.74
2023-04-26T21:38:28.114Z,9.55
2023-04-26T21:40:55.742Z,9.44
2023-04-26T21:43:23.144Z,9.92
2023-04-26T21:45:52.301Z,10.08
2023-04-26T21:48:19.912Z,9.35
2023-04-26T21:50:50.551Z,9.90
2023-04-26T21:53:17.916Z,9.76
2023-04-26T21:55:50.813Z,9.98
2023-04-26T21:58:19.085Z,9.97
2023-04-26T22:00:46.940Z,9.45
2023-04-26T22:03:14.861Z,9.68
2023-04-26T22:05:42.348Z,9.05
2023-04-26T22:08:09.746Z,9.45
2023-04-26T22:10:38.761Z,9.77
2023-04-26T22:13:06.297Z,9.74
2023-04-26T22:15:33.649Z,9.63
2023-04-26T22:18:01.574Z,9.76
2023-04-26T22:20:29.960Z,9.43
2023-04-26T22:22:57.348Z,9.60
2023-04-26T22:25:25.197Z,9.73
2023-04-26T22:27:53.410Z,10.03
2023-04-26T22:30:25.368Z,10.04
2023-04-26T22:32:55.554Z,9.44
2023-04-26T22:35:23.742Z,9.48
2023-04-26T22:37:51.286Z,8.96
2023-04-26T22:40:18.926Z,9.64
2023-04-26T22:42:46.493Z,8.90
2023-04-26T22:45:13.925Z,8.10
2023-04-26T22:47:41.669Z,8.33
2023-04-26T22:50:09.414Z,8.57
2023-04-26T22:52:36.842Z,8.93
2023-04-26T22:55:04.632Z,8.71
2023-04-26T22:57:32.040Z,8.78
2023-04-26T22:59:59.416Z,8.30
2023-04-26T23:02:27.135Z,8.27
2023-04-26T23:04:54.739Z,8.71
2023-04-26T23:07:22.156Z,8.87
2023-04-26T23:09:49.769Z,8.19
2023-04-26T23:12:20.190Z,8.32
2023-04-26T23:14:48.638Z,7.79
2023-04-26T23:17:16.577Z,7.64
2023-04-26T23:19:43.949Z,6.77
2023-04-26T23:22:11.287Z,7.32
2023-04-26T23:24:38.884Z,7.35
2023-04-26T23:27:06.230Z,7.49
2023-04-26T23:29:33.610Z,7.86
2023-04-26T23:32:01.224Z,8.17
2023-04-26T23:34:28.598Z,8.35
2023-04-26T23:36:55.948Z,8.37
2023-04-26T23:39:23.765Z,8.55
2023-04-26T23:41:51.149Z,8.65
2023-04-26T23:44:18.505Z,8.42
2023-04-26T23:46:46.319Z,8.33
2023-04-26T23:49:13.871Z,8.75
2023-04-26T23:51:41.445Z,8.31
2023-04-26T23:54:09.066Z,8.49
2023-04-26T23:56:36.572Z,8.62
2023-04-26T23:59:03.984Z,8.77
